Flight Track Log - Related Links

Times and Time Zones

All times are in EDT time to prevent confusion due to time zone crossing. See the N146TS flight status page for this flight to view local times or setup timezone preferences in your user account.

Time Position Orientation Groundspeed Altitude Reporting Facility
EDT Latitude Longitude Course Direction KTS MPH feet Rate Location/Type
Fri 10:57:04 PM 42.4500 -71.2833 216° Southwest 116 133 900  Level KA90
Fri 10:57:58 PM 42.4333 -71.3000 216° Southwest 106 122 1,600 632 Climbing KA90
Fri 10:58:58 PM 42.4167 -71.3167 216° Southwest 116 133 2,100 550 Climbing KA90
Fri 10:59:58 PM 42.3833 -71.3500 216° Southwest 104 120 2,700 550 Climbing KA90
Fri 11:00:58 PM 42.3667 -71.3833 236° Southwest 109 125 3,200 522 Climbing KA90
Fri 11:01:30 PM 42.3564 -71.4019 233° Southwest 110 127 3,500 522 Climbing Boston Center
Fri 11:02:07 PM 42.3444 -71.4197 228° Southwest 110 127 3,800 557 Climbing Boston Center
Fri 11:03:07 PM 42.3222 -71.4519 227° Southwest 113 130 4,400 632 Climbing Boston Center
Fri 11:04:01 PM 42.3008 -71.4814 226° Southwest 116 133 5,000 626 Climbing Boston Center
Fri 11:05:02 PM 42.2794 -71.5147 229° Southwest 117 135 5,600 422 Climbing Boston Center
Fri 11:06:09 PM 42.2572 -71.5533 232° Southwest 121 139 5,900 142 Climbing Boston Center
Fri 11:07:09 PM 42.2333 -71.6003 236° Southwest 147 169 5,900  Level Boston Center
Fri 11:08:10 PM 42.2097 -71.6442 234° Southwest 150 173 5,900  Level Boston Center
Fri 11:09:11 PM 42.1864 -71.6906 236° Southwest 146 168 5,900  Level Boston Center
Fri 11:10:05 PM 42.1636 -71.7294 232° Southwest 147 169 5,900  Level Boston Center
Fri 11:11:06 PM 42.1417 -71.7769 238° Southwest 148 170 5,900  Level Boston Center
Fri 11:12:06 PM 42.1181 -71.8208 234° Southwest 149 171 5,900  Level Boston Center
Fri 11:13:07 PM 42.0942 -71.8675 235° Southwest 149 171 5,900  Level Boston Center
Fri 11:14:08 PM 42.0681 -71.9133 233° Southwest 148 170 5,900  Level Boston Center
Fri 11:15:02 PM 42.0469 -71.9553 236° Southwest 150 173 5,900  Level Boston Center
Fri 11:15:15 PM 42.0419 -71.9642 233° Southwest 148 170 5,900  Level Boston Center
Fri 11:16:03 PM 42.0236 -71.9989 235° Southwest 147 169 5,900  Level Boston Center
Fri 11:16:16 PM 42.0181 -72.0092 234° Southwest 148 170 5,900  Level Boston Center
Fri 11:17:03 PM 41.9994 -72.0456 235° Southwest 150 173 5,900  Level Boston Center
Fri 11:17:17 PM 41.9939 -72.0544 230° Southwest 148 170 5,900  Level Boston Center
Fri 11:18:04 PM 41.9758 -72.0892 235° Southwest 146 168 5,900  Level Boston Center
Fri 11:18:18 PM 41.9708 -72.0997 238° Southwest 148 170 5,900  Level Boston Center
Fri 11:19:05 PM 41.9517 -72.1356 234° Southwest 153 176 5,900  Level Boston Center
Fri 11:19:18 PM 41.9461 -72.1456 233° Southwest 149 171 5,900  Level Boston Center
Fri 11:20:05 PM 41.9250 -72.1839 233° Southwest 154 177 5,900  Level Boston Center
Fri 11:20:19 PM 41.9197 -72.1947 237° Southwest 150 173 5,900  Level Boston Center
Fri 11:21:06 PM 41.8983 -72.2322 233° Southwest 154 177 5,900  Level Boston Center
Fri 11:21:20 PM 41.8950 -72.2414 244° Southwest 152 175 5,900  Level Boston Center
Fri 11:22:20 PM 41.8708 -72.2875 235° Southwest 151 174 5,900  Level Boston Center
Fri 11:23:21 PM 41.8461 -72.3328 234° Southwest 152 175 5,900  Level Boston Center
Fri 11:24:08 PM 41.8258 -72.3711 235° Southwest 151 174 5,900  Level Boston Center
Fri 11:24:22 PM 41.8214 -72.3789 233° Southwest 151 174 5,900  Level Boston Center
Fri 11:25:08 PM 41.8017 -72.4172 235° Southwest 152 175 5,900  Level Boston Center
Fri 11:25:23 PM 41.7967 -72.4247 228° Southwest 152 175 5,900  Level Boston Center
Fri 11:26:09 PM 41.7753 -72.4628 233° Southwest 151 174 5,900  Level Boston Center
Fri 11:26:23 PM 41.7722 -72.4708 243° Southwest 152 175 5,900 -295 Level Boston Center
Fri 11:27:10 PM 41.7492 -72.5081 230° Southwest 173 199 5,600 -492 Descending Boston Center
Fri 11:27:24 PM 41.7442 -72.5239 247° West 162 186 5,400 -500 Descending Boston Center
Fri 11:28:10 PM 41.7225 -72.5650 235° Southwest 169 194 5,100 -492 Descending Boston Center
Fri 11:28:25 PM 41.7156 -72.5747 226° Southwest 168 193 4,900 -492 Descending Boston Center
Fri 11:29:11 PM 41.6933 -72.6150 234° Southwest 170 196 4,600 -492 Descending Boston Center
Fri 11:29:26 PM 41.6881 -72.6264 238° Southwest 169 194 4,400 -545 Descending Boston Center
Fri 11:30:17 PM 41.6647 -72.6708 235° Southwest 171 197 4,000 -248 Descending Boston Center
Fri 11:31:27 PM 41.6333 -72.7258 233° Southwest 163 188 3,900 -49 Descending Boston Center
Fri 11:32:19 PM 41.6133 -72.7647 235° Southwest 152 175 3,900  Level Boston Center
Fri 11:33:29 PM 41.5847 -72.8169 234° Southwest 152 175 3,900  Level Boston Center
Fri 11:34:29 PM 41.5578 -72.8661 234° Southwest 152 175 3,900  Level Boston Center
Fri 11:35:30 PM 41.5336 -72.9108 234° Southwest 151 174 3,900  Level Boston Center
Fri 11:36:31 PM 41.5086 -72.9564 234° Southwest 152 175 3,900  Level Boston Center
Fri 11:37:31 PM 41.4836 -73.0008 233° Southwest 151 174 3,900  Level Boston Center
Fri 11:38:32 PM 41.4597 -73.0458 235° Southwest 151 174 3,900  Level Boston Center
Fri 11:39:33 PM 41.4353 -73.0894 233° Southwest 151 174 3,900  Level Boston Center
Fri 11:40:34 PM 41.4089 -73.1381 234° Southwest 149 171 3,900  Level Boston Center
Fri 11:41:34 PM 41.3847 -73.1833 235° Southwest 150 173 3,900  Level Boston Center
Fri 11:42:35 PM 41.3592 -73.2269 232° Southwest 150 173 3,900  Level Boston Center
Fri 11:43:36 PM 41.3361 -73.2719 236° Southwest 150 173 3,900  Level Boston Center
Fri 11:44:37 PM 41.3114 -73.3192 235° Southwest 151 174 3,900  Level Boston Center
Fri 11:45:37 PM 41.3067 -73.3750 264° West 142 163 3,900  Level Boston Center
Fri 11:46:38 PM 41.2997 -73.4269 260° West 142 163 3,900  Level Boston Center
Fri 11:47:39 PM 41.2928 -73.4792 260° West 142 163 3,900  Level Boston Center
Fri 11:48:39 PM 41.2864 -73.5306 261° West 142 163 3,900  Level Boston Center
Fri 11:49:40 PM 41.2806 -73.5800 261° West 139 160 3,900 -98 Level Boston Center
Fri 11:50:41 PM 41.2789 -73.6281 267° West 124 143 3,700 -275 Descending Boston Center
Fri 11:51:29 PM 41.2833 -73.6667 279° West 113 130 3,400 -350 Descending New York TRACON
Fri 11:52:41 PM 41.3000 -73.6667 360° North 84 97 3,000 -182 Descending New York TRACON
Fri 11:53:41 PM 41.3167 -73.6667 360° North 85 98 3,000 -222 Level New York TRACON
Fri 11:54:29 PM 41.3333 -73.6500 37° Northeast 90 104 2,600 -421 Descending New York TRACON
Fri 11:55:35 PM 41.3333 -73.6167 90° East 89 102 2,200 -238 Descending New York TRACON
Fri 11:56:35 PM 41.3500 -73.5833 56° Northeast 86 99 2,100 -369 Descending New York TRACON
Fri 11:57:45 PM 41.3558 -73.5447 79° East 87 100 1,400 -504 Descending Boston Center
Fri 11:58:46 PM 41.3617 -73.5217 71° East 86 99 1,000 -393 Descending Boston Center
Sat 12:00:00 AM 41.3715 -73.4822 66° East  Level Estimated
Sat 12:07:00 AM 41.3715 -73.4822 66° East  Level Estimated
Sat 12:08:00 AM 41.3715 -73.4822 243° Southwest  Level Estimated
Sat 12:09:00 AM 41.3715 -73.4822 243° Southwest  Level Estimated

Login

Don't have an account? Register now (free) for customized features, flight alerts, and more!